Time;durP1;ratioP1;P1;durP2;ratioP2;P2;SDS_P1;SDS_P2;PMS_P1;PMS_P2;Temp;Humidity;BMP_temperature;BMP_pressure;BME280_temperature;BME280_humidity;BME280_pressure;Samples;Min_cycle;Max_cycle;Signal;HPM_P1;HPM_P2
2022/11/15 00:02:37;;;;;;;17.75;8.45;;;;;;;-148.88;96.45;75943.78;5019326;28;20508;-85
2022/11/15 00:05:30;;;;;;;16.13;8.10;;;;;;;-148.88;94.94;75923.47;5019024;28;20370;-85
2022/11/15 00:08:46;;;;;;;13.05;7.18;;;;;;;-148.88;94.61;75919.41;5015856;28;20129;-85
2022/11/15 00:11:36;;;;;;;12.00;8.05;;;;;;;-148.88;94.38;75907.22;4975756;28;20041;-85
2022/11/15 00:14:13;;;;;;;13.25;7.35;;;;;;;-148.88;94.89;75901.13;5019578;28;20125;-85
2022/11/15 00:16:56;;;;;;;15.02;7.65;;;;;;;-148.88;95.02;75893.00;5018983;28;20022;-85
2022/11/15 00:19:24;;;;;;;14.63;7.40;;;;;;;-148.88;95.45;75882.84;5018805;28;20153;-84
2022/11/15 00:21:49;;;;;;;13.45;7.03;;;;;;;-148.88;95.77;75870.66;5018605;28;20440;-85
2022/11/15 00:24:14;;;;;;;12.88;7.30;;;;;;;-148.88;95.75;75866.59;5016397;28;20165;-86
2022/11/15 00:26:40;;;;;;;13.90;7.60;;;;;;;-148.88;95.77;75854.41;5016802;28;20026;-84
2022/11/15 00:29:05;;;;;;;14.27;7.38;;;;;;;-148.88;95.98;75854.41;5015783;28;20014;-84
2022/11/15 00:31:31;;;;;;;13.38;6.63;;;;;;;-148.88;95.74;75850.34;5015523;28;20034;-85
2022/11/15 00:33:59;;;;;;;13.32;7.10;;;;;;;-148.88;96.28;75846.28;5016376;28;20083;-85
2022/11/15 00:36:31;;;;;;;13.43;7.43;;;;;;;-148.88;96.35;75846.28;5016342;28;20112;-86
2022/11/15 00:38:56;;;;;;;12.75;7.03;;;;;;;-148.88;96.68;75840.19;5017063;28;20030;-84
2022/11/15 00:41:21;;;;;;;11.30;6.18;;;;;;;-148.88;96.25;75834.09;5017130;28;20080;-86
2022/11/15 00:43:53;;;;;;;11.88;6.40;;;;;;;-148.88;96.50;75823.94;5016177;28;20026;-85
2022/11/15 00:46:34;;;;;;;;;;;;;;;;;;;;;
2022/11/15 00:49:08;;;;;;;12.55;6.55;;;;;;;-148.88;96.45;75823.94;5017411;28;20036;-85
2022/11/15 00:51:53;;;;;;;13.90;7.07;;;;;;;-148.88;96.67;75821.91;5016729;28;20026;-85
2022/11/15 00:54:27;;;;;;;10.65;7.15;;;;;;;-148.88;96.96;75821.91;5017341;28;20109;-84
2022/11/15 00:57:05;;;;;;;12.90;7.80;;;;;;;-148.88;96.70;75819.88;5017034;28;20427;-84
2022/11/15 00:59:30;;;;;;;11.00;6.47;;;;;;;-148.88;96.46;75817.84;5015681;28;20036;-83
2022/11/15 01:01:55;;;;;;;12.32;7.70;;;;;;;-148.88;96.75;75813.78;5032534;28;20443;-87
2022/11/15 01:04:21;;;;;;;12.63;6.75;;;;;;;-148.88;96.67;75813.78;5032949;28;20029;-84
2022/11/15 01:06:49;;;;;;;10.02;6.57;;;;;;;-148.88;96.79;75805.66;5027551;28;20033;-86
2022/11/15 01:09:15;;;;;;;13.10;6.22;;;;;;;-148.88;97.05;75797.53;5023409;28;20029;-84
2022/11/15 01:11:40;;;;;;;10.57;7.18;;;;;;;-148.88;97.02;75797.53;5023263;28;20034;-86
2022/11/15 01:14:06;;;;;;;10.73;6.85;;;;;;;-148.88;97.22;75797.53;5022133;28;20026;-86
2022/11/15 01:16:33;;;;;;;12.60;7.55;;;;;;;-148.88;97.70;75789.41;5023274;28;20082;-86
2022/11/15 01:19:01;;;;;;;12.55;8.65;;;;;;;-148.88;97.62;75789.41;5020389;28;20116;-86
2022/11/15 01:21:26;;;;;;;10.23;6.50;;;;;;;-148.88;97.50;75785.34;5018559;28;20029;-86
2022/11/15 01:23:59;;;;;;;10.15;7.10;;;;;;;-148.88;98.01;75785.34;5017315;28;20416;-85
2022/11/15 01:26:25;;;;;;;11.10;6.65;;;;;;;-148.88;97.87;75789.41;5018021;28;20026;-86
2022/11/15 01:28:51;;;;;;;11.00;6.85;;;;;;;-148.88;97.52;75787.38;5017078;28;20464;-85
2022/11/15 01:31:24;;;;;;;11.68;6.93;;;;;;;-148.88;97.58;75785.34;5016597;28;20022;-85
2022/11/15 01:33:49;;;;;;;10.03;5.87;;;;;;;-148.88;97.50;75787.38;5015438;28;20022;-84
2022/11/15 01:36:29;;;;;;;10.43;6.13;;;;;;;-148.88;97.55;75779.25;5014282;28;20097;-85
2022/11/15 01:38:56;;;;;;;10.52;6.25;;;;;;;-148.88;97.68;75777.22;5015821;28;20033;-85
2022/11/15 01:41:33;;;;;;;10.57;7.13;;;;;;;-148.88;97.54;75769.09;5014901;28;20049;-85
2022/11/15 01:44:30;;;;;;;9.93;6.45;;;;;;;-148.88;97.78;75769.09;5014946;28;20036;-85
2022/11/15 01:46:59;;;;;;;9.13;6.40;;;;;;;-148.88;98.02;75765.03;5012678;28;20061;-84
2022/11/15 01:49:33;;;;;;;11.95;8.23;;;;;;;-148.88;98.31;75754.88;5014380;28;20069;-85
2022/11/15 01:52:01;;;;;;;10.30;8.18;;;;;;;-148.88;98.29;75752.84;5017316;28;20022;-85
2022/11/15 01:54:27;;;;;;;10.50;8.07;;;;;;;-148.88;98.40;75752.84;5017585;28;20061;-84
2022/11/15 01:57:09;;;;;;;10.70;5.97;;;;;;;-148.88;98.48;75746.75;5015896;28;20068;-85
2022/11/15 01:59:36;;;;;;;9.23;5.95;;;;;;;-148.88;98.69;75734.56;5015339;28;20026;-84
2022/11/15 02:02:09;;;;;;;9.77;6.10;;;;;;;-148.88;98.80;75728.47;5015164;28;20045;-84
2022/11/15 02:04:42;;;;;;;10.50;5.93;;;;;;;-148.88;99.21;75720.34;5016068;28;20026;-85
2022/11/15 02:07:10;;;;;;;10.85;6.45;;;;;;;-148.88;99.24;75710.19;5015868;28;20033;-85
2022/11/15 02:09:37;;;;;;;11.00;6.50;;;;;;;-148.88;99.25;75716.28;5014142;28;20111;-85
2022/11/15 02:12:03;;;;;;;14.35;7.32;;;;;;;-148.88;99.83;75704.09;5015051;28;20040;-84
2022/11/15 02:14:30;;;;;;;10.27;6.68;;;;;;;-148.88;100.00;75695.97;5014818;28;20022;-85
2022/11/15 02:17:16;;;;;;;13.00;7.35;;;;;;;-148.88;100.00;75691.91;5014335;28;20464;-85
2022/11/15 02:20:13;;;;;;;12.57;6.22;;;;;;;-148.88;100.00;75687.84;5016308;28;20497;-84
2022/11/15 02:23:09;;;;;;;12.02;6.65;;;;;;;-148.88;100.00;75677.69;5016375;28;20072;-85
2022/11/15 02:25:52;;;;;;;10.95;6.15;;;;;;;-148.88;100.00;75681.75;5015706;28;20029;-85
2022/11/15 02:28:41;;;;;;;13.25;6.13;;;;;;;-148.88;100.00;75671.59;5015094;28;20033;-85
2022/11/15 02:31:29;;;;;;;13.82;6.50;;;;;;;-148.88;100.00;75673.63;5015790;28;20022;-85
2022/11/15 02:34:29;;;;;;;9.93;5.82;;;;;;;-148.88;100.00;75671.59;5015885;28;20121;-85
2022/11/15 02:37:10;;;;;;;11.75;6.97;;;;;;;-148.88;100.00;75671.59;5015415;28;20057;-85
2022/11/15 02:39:48;;;;;;;14.02;6.45;;;;;;;-148.88;100.00;75663.47;5016003;28;20061;-83
2022/11/15 02:45:19;;;;;;;10.75;6.57;;;;;;;-148.88;100.00;75657.38;5014670;28;20033;-84
2022/11/15 02:47:47;;;;;;;12.68;6.40;;;;;;;-148.88;100.00;75653.31;5013760;28;20400;-85
2022/11/15 02:50:20;;;;;;;16.85;7.50;;;;;;;-148.88;100.00;75647.22;5015336;28;20021;-85
2022/11/15 02:52:48;;;;;;;14.05;6.65;;;;;;;-148.88;100.00;75643.16;5016130;28;20029;-84
2022/11/15 02:55:32;;;;;;;12.32;7.43;;;;;;;-148.88;100.00;75635.03;5014641;28;20049;-85
2022/11/15 02:58:00;;;;;;;8.38;6.00;;;;;;;-148.88;100.00;75626.91;5015060;28;20034;-84
2022/11/15 03:00:35;;;;;;;13.15;7.40;;;;;;;-148.88;100.00;75618.78;5014639;28;20022;-84
2022/11/15 03:03:17;;;;;;;14.48;7.68;;;;;;;-148.88;100.00;75622.84;5015684;28;20024;-84
2022/11/15 03:06:15;;;;;;;15.52;7.03;;;;;;;-148.88;100.00;75614.72;5015355;28;20018;-85
2022/11/15 03:09:22;;;;;;;15.82;7.95;;;;;;;-148.88;100.00;75610.66;5015887;28;20053;-85
2022/11/15 03:11:56;;;;;;;14.18;9.70;;;;;;;-148.88;100.00;75612.69;4995271;28;20038;-84
2022/11/15 03:14:28;;;;;;;14.38;9.75;;;;;;;-148.88;100.00;75606.59;5016276;28;20061;-85
2022/11/15 03:17:00;;;;;;;12.50;6.72;;;;;;;-148.88;100.00;75604.56;5015223;28;20026;-84
2022/11/15 03:19:47;;;;;;;12.30;7.53;;;;;;;-148.88;100.00;75608.63;5014076;28;20030;-85
2022/11/15 03:22:21;;;;;;;16.15;7.38;;;;;;;-148.88;100.00;75602.53;5018922;28;20017;-84
2022/11/15 03:24:50;;;;;;;;;;;;;;;-148.88;100.00;75596.44;5025900;28;20029;-85
2022/11/15 03:27:20;;;;;;;14.25;8.60;;;;;;;-148.88;100.00;75604.56;5037523;28;19936;-85
2022/11/15 03:30:01;;;;;;;17.15;7.22;;;;;;;-148.88;100.00;75598.47;5029968;28;20034;-86
2022/11/15 03:32:31;;;;;;;15.63;8.57;;;;;;;-148.88;100.00;75594.44;5020965;28;20080;-86
2022/11/15 03:35:07;;;;;;;15.10;8.32;;;;;;;-148.88;100.00;75592.38;5019925;28;20049;-86
2022/11/15 03:37:54;;;;;;;15.82;8.82;;;;;;;-148.88;100.00;75590.34;5019160;28;20045;-86
2022/11/15 03:40:29;;;;;;;15.38;10.15;;;;;;;-148.88;100.00;75586.31;5017937;28;20501;-86
2022/11/15 03:43:10;;;;;;;13.52;8.23;;;;;;;-148.88;100.00;75592.38;5016148;28;20041;-85
2022/11/15 03:45:49;;;;;;;12.82;9.15;;;;;;;-148.88;100.00;75584.25;5011985;28;20022;-85
2022/11/15 03:48:25;;;;;;;14.57;9.68;;;;;;;-148.88;100.00;75594.44;5012488;28;20034;-85
2022/11/15 03:50:55;;;;;;;16.48;8.73;;;;;;;-148.88;100.00;75590.34;5013442;28;20032;-86
2022/11/15 03:53:20;;;;;;;16.20;10.02;;;;;;;-148.88;100.00;75598.47;5014387;28;20033;-85
2022/11/15 03:55:48;;;;;;;12.13;8.82;;;;;;;-148.88;100.00;75592.38;5016732;28;20025;-86
2022/11/15 03:58:14;;;;;;;13.13;9.20;;;;;;;-148.88;100.00;75592.38;5016786;28;20026;-85
2022/11/15 04:00:42;;;;;;;18.05;11.20;;;;;;;-148.88;100.00;75594.44;5013600;28;20119;-85
2022/11/15 04:03:10;;;;;;;15.93;9.30;;;;;;;-148.88;100.00;75598.47;5013623;28;20045;-85
2022/11/15 04:05:39;;;;;;;15.40;11.05;;;;;;;-148.88;100.00;75594.44;5013187;28;20022;-85
2022/11/15 04:08:07;;;;;;;13.85;9.48;;;;;;;-148.88;100.00;75588.34;5012443;28;20022;-85
2022/11/15 04:10:32;;;;;;;15.00;10.13;;;;;;;-148.88;100.00;75590.34;5012082;28;20464;-85
2022/11/15 04:12:58;;;;;;;16.27;11.40;;;;;;;-148.88;100.00;75588.34;5014924;28;20018;-84
2022/11/15 04:15:24;;;;;;;16.60;12.63;;;;;;;-148.88;100.00;75582.22;5015885;28;20452;-85
2022/11/15 04:17:53;;;;;;;16.17;12.10;;;;;;;-148.88;100.00;75582.22;5015904;28;20030;-84
2022/11/15 04:26:10;;;;;;;15.82;11.85;;;;;;;-148.88;100.00;75578.19;5017262;28;20049;-84
2022/11/15 04:29:33;;;;;;;16.52;12.40;;;;;;;-148.88;100.00;75576.13;5016515;28;20564;-85
2022/11/15 04:31:21;;;;;;;17.35;13.00;;;;;;;-148.88;100.00;75574.13;5016268;28;20034;-83
2022/11/15 04:34:11;;;;;;;21.67;14.57;;;;;;;-148.88;100.00;75578.19;5015727;28;20033;-85
2022/11/15 04:39:34;;;;;;;21.25;15.25;;;;;;;-148.88;100.00;75578.19;5016580;28;20036;-83
2022/11/15 04:41:59;;;;;;;18.50;13.43;;;;;;;-148.88;100.00;75572.09;5016425;28;20419;-83
2022/11/15 04:44:24;;;;;;;20.98;13.00;;;;;;;-148.88;100.00;75578.19;5016006;28;20026;-83
2022/11/15 04:46:50;;;;;;;19.52;13.20;;;;;;;-148.88;100.00;75568.03;5017316;28;20030;-85
2022/11/15 04:49:15;;;;;;;19.52;13.55;;;;;;;-148.88;100.00;75570.03;5015535;28;20021;-85
2022/11/15 04:51:40;;;;;;;18.40;10.95;;;;;;;-148.88;100.00;75566.00;5016654;28;20029;-84
2022/11/15 04:54:06;;;;;;;18.55;11.90;;;;;;;-148.88;100.00;75561.94;5016047;28;20032;-85
2022/11/15 04:56:31;;;;;;;19.33;11.68;;;;;;;-148.88;100.00;75566.00;5016011;28;20480;-85
2022/11/15 04:58:57;;;;;;;18.50;11.65;;;;;;;-148.88;100.00;75557.88;5015751;28;20046;-85
2022/11/15 05:01:22;;;;;;;21.92;12.15;;;;;;;-148.88;100.00;75557.88;5015260;28;20120;-85
2022/11/15 05:06:31;;;;;;;;;;;;;;;-148.88;100.00;75549.75;5016766;28;20176;-84
2022/11/15 05:08:57;;;;;;;18.02;9.90;;;;;;;-148.88;100.00;75553.81;5015261;28;19975;-84
2022/11/15 05:11:27;;;;;;;17.25;11.20;;;;;;;-148.88;100.00;75549.75;5015586;28;20113;-84
2022/11/15 05:13:52;;;;;;;22.88;12.10;;;;;;;-148.88;100.00;75549.75;5015312;28;20160;-85
2022/11/15 05:16:21;;;;;;;20.83;14.20;;;;;;;-148.88;100.00;75545.69;5015545;28;20456;-85
2022/11/15 05:18:46;;;;;;;19.30;11.50;;;;;;;-148.88;100.00;75539.59;5013337;28;20038;-84
2022/11/15 05:21:20;;;;;;;17.90;11.23;;;;;;;-148.88;100.00;75543.66;5014628;28;20040;-84
2022/11/15 05:23:48;;;;;;;17.50;11.40;;;;;;;-148.88;100.00;75541.63;5014974;28;20033;-84
2022/11/15 05:26:18;;;;;;;21.42;12.23;;;;;;;-148.88;100.00;75533.50;5014693;28;20026;-85
2022/11/15 05:28:44;;;;;;;17.08;11.90;;;;;;;-148.88;100.00;75529.44;5015260;28;20404;-85
2022/11/15 05:31:12;;;;;;;18.65;12.05;;;;;;;-148.88;100.00;75525.38;5015705;28;20030;-85
2022/11/15 05:33:39;;;;;;;19.67;11.60;;;;;;;-148.88;100.00;75517.25;5016238;28;20437;-84
2022/11/15 05:36:45;;;;;;;18.75;13.00;;;;;;;-148.88;100.00;75511.16;5014715;28;20096;-86
2022/11/15 05:39:11;;;;;;;15.82;9.70;;;;;;;-148.88;100.00;75515.22;4958915;28;20035;-83
2022/11/15 05:41:51;;;;;;;19.10;13.02;;;;;;;-148.88;100.00;75515.22;4957868;28;20031;-86
2022/11/15 05:44:32;;;;;;;17.88;12.52;;;;;;;-148.88;100.00;75517.25;4997835;28;20034;-84
2022/11/15 05:47:04;;;;;;;17.38;13.10;;;;;;;-148.88;100.00;75513.19;5015210;28;20034;-84
2022/11/15 05:49:34;;;;;;;19.38;13.60;;;;;;;-148.88;100.00;75521.31;5014935;28;20022;-84
2022/11/15 05:52:07;;;;;;;16.75;13.20;;;;;;;-148.88;100.00;75521.31;5014895;28;20030;-86
2022/11/15 05:54:34;;;;;;;18.02;9.63;;;;;;;-148.88;100.00;75519.28;5013854;28;20554;-86
2022/11/15 05:57:00;;;;;;;17.95;13.23;;;;;;;-148.88;100.00;75515.22;5015548;28;20038;-86
2022/11/15 05:59:30;;;;;;;16.88;12.75;;;;;;;-148.88;100.00;75511.16;5013612;28;20033;-85
2022/11/15 06:02:22;;;;;;;17.45;13.20;;;;;;;-148.88;100.00;75509.13;5015772;28;20044;-85
2022/11/15 06:05:13;;;;;;;16.02;12.38;;;;;;;-148.88;100.00;75511.16;5014804;28;20168;-85
2022/11/15 06:07:59;;;;;;;18.92;13.02;;;;;;;-148.88;100.00;75505.06;5015382;28;20042;-85
2022/11/15 06:10:29;;;;;;;15.52;11.98;;;;;;;-148.88;100.00;75505.06;5015137;28;20033;-84
2022/11/15 06:13:10;;;;;;;16.65;12.45;;;;;;;-148.88;100.00;75513.19;5015766;28;20041;-83
2022/11/15 06:15:45;;;;;;;17.58;12.00;;;;;;;-148.88;100.00;75509.13;5015117;28;20034;-82
2022/11/15 06:18:40;;;;;;;15.88;12.25;;;;;;;-148.88;100.00;75505.06;5015520;28;20086;-82
2022/11/15 06:21:20;;;;;;;15.40;8.40;;;;;;;-148.88;100.00;75501.00;5014790;28;20049;-83
2022/11/15 06:23:51;;;;;;;14.82;11.55;;;;;;;-148.88;100.00;75501.00;5014442;28;20030;-83
2022/11/15 06:26:22;;;;;;;14.23;8.45;;;;;;;-148.88;100.00;75496.94;5015301;28;20025;-83
2022/11/15 06:29:12;;;;;;;15.35;12.15;;;;;;;-148.88;100.00;75496.94;5014986;28;20060;-84
2022/11/15 06:31:53;;;;;;;13.85;10.40;;;;;;;-148.88;100.00;75494.91;5015611;28;20022;-84
2022/11/15 06:34:22;;;;;;;14.80;10.98;;;;;;;-148.88;100.00;75492.88;5013433;28;20088;-83
2022/11/15 06:37:19;;;;;;;17.70;11.43;;;;;;;-148.88;100.00;75498.97;5013873;28;20026;-84
2022/11/15 06:39:48;;;;;;;15.23;8.85;;;;;;;-148.88;100.00;75505.06;5011773;28;20030;-83
2022/11/15 06:42:25;;;;;;;15.50;10.55;;;;;;;-148.88;100.00;75501.00;5014149;28;20026;-83
2022/11/15 06:45:00;;;;;;;14.98;11.02;;;;;;;-148.88;100.00;75505.06;5015246;28;20026;-83
2022/11/15 06:47:33;;;;;;;14.38;10.98;;;;;;;-148.88;100.00;75513.19;5015955;28;20076;-83
2022/11/15 06:49:59;;;;;;;13.98;10.23;;;;;;;-148.88;100.00;75503.03;5018368;28;20017;-84
2022/11/15 06:52:55;;;;;;;15.23;10.90;;;;;;;-148.88;100.00;75501.00;5016378;28;20041;-83
2022/11/15 06:55:29;;;;;;;17.92;11.32;;;;;;;-148.88;100.00;75496.94;5015663;28;20033;-85
2022/11/15 06:58:06;;;;;;;;;;;;;;;-148.88;100.00;75484.75;5014678;28;20041;-84
2022/11/15 07:00:31;;;;;;;13.70;10.20;;;;;;;-148.88;100.00;75486.78;5012865;23;19949;-78
2022/11/15 07:03:00;;;;;;;13.35;10.07;;;;;;;-148.88;100.00;75480.69;4999947;28;20031;-78
2022/11/15 07:05:26;;;;;;;13.20;9.82;;;;;;;-148.88;100.00;75472.56;5000128;28;20029;-78
2022/11/15 07:07:53;;;;;;;14.27;10.25;;;;;;;-148.88;100.00;75472.56;4995915;28;20019;-79
2022/11/15 07:10:18;;;;;;;14.98;9.68;;;;;;;-148.88;100.00;75472.56;5001737;28;20026;-79
2022/11/15 07:12:47;;;;;;;12.57;9.30;;;;;;;-148.88;100.00;75460.38;5003915;28;20030;-79
2022/11/15 07:15:12;;;;;;;15.70;10.43;;;;;;;-148.88;100.00;75464.44;4998473;28;20053;-80
2022/11/15 07:17:38;;;;;;;12.80;9.48;;;;;;;-148.88;100.00;75472.56;4997416;28;20030;-79
2022/11/15 07:20:03;;;;;;;11.82;9.23;;;;;;;-148.88;100.00;75468.50;4996113;28;20019;-78
2022/11/15 07:22:29;;;;;;;12.35;9.07;;;;;;;-148.88;100.00;75460.38;4997049;28;20065;-79
2022/11/15 07:24:54;;;;;;;12.60;9.40;;;;;;;-148.88;100.00;75460.38;4995885;28;20507;-80
2022/11/15 07:27:19;;;;;;;11.65;7.30;;;;;;;-148.88;100.00;75456.31;4996175;28;20395;-79
2022/11/15 07:29:45;;;;;;;13.40;8.73;;;;;;;-148.88;100.00;75452.25;4994827;28;20022;-79
2022/11/15 07:32:10;;;;;;;12.73;8.70;;;;;;;-148.88;100.00;75450.22;4995715;28;20541;-80
2022/11/15 07:34:35;;;;;;;10.85;8.20;;;;;;;-148.88;100.00;75448.19;4995911;28;20037;-80
2022/11/15 07:37:01;;;;;;;13.15;8.60;;;;;;;-148.88;100.00;75442.09;4994758;28;20026;-78
2022/11/15 07:39:26;;;;;;;12.60;9.27;;;;;;;-148.88;100.00;75446.16;4998512;28;20090;-78
2022/11/15 07:42:52;;;;;;;13.38;9.20;;;;;;;-148.88;100.00;75450.22;5003396;28;20029;-80
2022/11/15 07:44:36;;;;;;;11.30;8.52;;;;;;;-148.88;100.00;75454.28;5002097;28;20034;-80
2022/11/15 07:47:02;;;;;;;10.98;8.25;;;;;;;-148.88;100.00;75448.19;4997858;28;20033;-80
2022/11/15 07:49:27;;;;;;;10.00;8.88;;;;;;;-148.88;100.00;75448.19;4999188;28;20025;-80
2022/11/15 07:51:52;;;;;;;11.02;8.90;;;;;;;-148.88;100.00;75448.19;4999067;28;20062;-80
2022/11/15 07:54:18;;;;;;;10.48;8.63;;;;;;;-148.88;100.00;75448.19;4995399;28;20018;-80
2022/11/15 07:56:43;;;;;;;11.65;8.75;;;;;;;-148.88;100.00;75450.22;4999521;28;20038;-80
2022/11/15 07:59:08;;;;;;;11.63;8.38;;;;;;;-148.88;100.00;75444.13;4999329;28;20022;-79
2022/11/15 08:01:33;;;;;;;9.98;7.43;;;;;;;-148.88;100.00;75446.16;4999248;28;20129;-79
2022/11/15 08:03:59;;;;;;;10.63;8.27;;;;;;;-148.88;100.00;75440.06;4999163;28;20038;-80
2022/11/15 08:06:24;;;;;;;9.85;7.47;;;;;;;-148.88;100.00;75436.00;4999210;28;20157;-80
2022/11/15 08:08:49;;;;;;;9.75;8.15;;;;;;;-148.88;100.00;75423.81;4999199;28;20037;-80
2022/11/15 08:11:15;;;;;;;10.60;7.50;;;;;;;-148.88;100.00;75411.63;4998838;28;20026;-80
2022/11/15 08:13:40;;;;;;;11.05;6.63;;;;;;;-148.88;99.95;75403.50;4999706;28;20026;-79
2022/11/15 08:16:05;;;;;;;8.68;6.65;;;;;;;-148.88;99.62;75393.34;4996170;28;20023;-78
2022/11/15 08:18:31;;;;;;;8.77;6.50;;;;;;;-148.88;99.35;75383.19;4996505;28;20030;-78
2022/11/15 08:21:03;;;;;;;8.38;6.72;;;;;;;-148.88;98.76;75360.84;4997912;28;20092;-79
2022/11/15 08:23:29;;;;;;;11.88;7.43;;;;;;;-148.88;98.54;75354.75;4997811;28;20105;-79
2022/11/15 08:26:02;;;;;;;10.93;7.13;;;;;;;-148.88;98.36;75344.59;4997942;28;20058;-80
2022/11/15 08:28:29;;;;;;;9.95;5.70;;;;;;;-148.88;97.95;75330.38;4998234;28;20050;-80
2022/11/15 08:30:54;;;;;;;7.40;5.20;;;;;;;-148.88;97.49;75318.19;4998119;28;20030;-79
2022/11/15 08:33:19;;;;;;;6.82;5.18;;;;;;;-148.88;97.34;75316.16;4998115;28;20445;-79
2022/11/15 08:35:45;;;;;;;7.20;4.78;;;;;;;-148.88;96.71;75312.09;4998462;28;20031;-79
2022/11/15 08:38:11;;;;;;;7.55;5.00;;;;;;;-148.88;96.56;75306.00;5013876;28;20026;-80
2022/11/15 08:40:37;;;;;;;10.23;5.22;;;;;;;-148.88;96.60;75303.97;4998598;28;20030;-79
2022/11/15 08:43:02;;;;;;;6.90;4.93;;;;;;;-148.88;96.51;75306.00;4998410;28;20034;-80
2022/11/15 08:45:33;;;;;;;8.80;5.03;;;;;;;-148.88;96.50;75297.88;5013366;28;20083;-80
2022/11/15 08:48:02;;;;;;;7.35;4.95;;;;;;;-148.88;96.05;75291.78;4998736;28;20077;-79
2022/11/15 08:50:27;;;;;;;7.38;5.32;;;;;;;-148.88;95.88;75289.75;4997518;28;20068;-79
2022/11/15 08:52:53;;;;;;;7.03;5.20;;;;;;;-148.88;96.17;75281.66;4999087;28;20145;-79
2022/11/15 08:55:18;;;;;;;8.57;5.47;;;;;;;-148.88;95.59;75275.56;4997478;28;20148;-79
2022/11/15 08:57:43;;;;;;;8.10;4.55;;;;;;;-148.88;94.41;75257.28;4996620;28;20477;-79
2022/11/15 09:00:11;;;;;;;5.53;4.43;;;;;;;-148.88;94.99;75253.22;4996944;28;20026;-80
2022/11/15 09:02:37;;;;;;;6.70;4.35;;;;;;;-148.88;93.39;75226.81;4995694;28;20023;-79
2022/11/15 09:05:03;;;;;;;8.07;4.20;;;;;;;-148.88;91.80;75220.72;4996271;28;20109;-80
2022/11/15 09:07:29;;;;;;;5.47;3.70;;;;;;;-148.88;91.59;75210.56;4998035;28;20030;-81
2022/11/15 09:09:55;;;;;;;5.57;3.83;;;;;;;-148.88;92.49;75204.47;4997717;28;20488;-80
2022/11/15 09:12:20;;;;;;;6.18;4.10;;;;;;;-148.88;92.17;75188.22;4998454;28;20088;-80
2022/11/15 09:14:45;;;;;;;6.55;5.03;;;;;;;-148.88;89.19;75163.84;4998530;28;20401;-78
2022/11/15 09:17:10;;;;;;;5.88;3.75;;;;;;;-148.88;88.21;75133.38;4999992;28;20074;-78
2022/11/15 09:19:36;;;;;;;5.85;3.20;;;;;;;-148.88;87.30;75123.22;4999262;28;20106;-78
2022/11/15 09:22:05;;;;;;;4.70;3.58;;;;;;;-148.88;84.79;75117.13;4999463;28;20053;-77
2022/11/15 09:24:30;;;;;;;5.70;3.38;;;;;;;-148.88;84.42;75121.19;4998196;28;20034;-78
2022/11/15 09:26:56;;;;;;;5.70;3.55;;;;;;;-148.88;84.13;75117.13;4998111;28;20560;-79
2022/11/15 09:29:21;;;;;;;5.55;3.13;;;;;;;-148.88;83.46;75113.06;4997036;28;20022;-78
2022/11/15 09:31:46;;;;;;;4.25;2.88;;;;;;;-148.88;83.48;75115.09;4997163;28;20080;-78
2022/11/15 09:34:12;;;;;;;4.45;2.80;;;;;;;-148.88;83.68;75123.22;4997548;28;20026;-79
2022/11/15 09:36:37;;;;;;;5.97;2.78;;;;;;;-148.88;84.50;75121.19;4998987;28;20030;-80
2022/11/15 09:39:02;;;;;;;4.35;2.60;;;;;;;-148.88;84.51;75117.13;4997956;28;20025;-78
2022/11/15 09:41:49;;;;;;;3.70;2.67;;;;;;;-148.88;84.28;75117.13;4998095;28;20464;-79
2022/11/15 09:44:38;;;;;;;4.57;2.60;;;;;;;-148.88;84.57;75117.13;4999896;28;20459;-78
2022/11/15 09:47:31;;;;;;;3.40;2.45;;;;;;;-148.88;82.84;75121.19;4999351;28;20034;-79
2022/11/15 09:50:01;;;;;;;4.40;2.67;;;;;;;-148.88;82.45;75113.06;5000000;28;20030;-80
2022/11/15 09:52:27;;;;;;;4.78;2.63;;;;;;;-148.88;81.41;75121.19;5000922;28;20030;-79
2022/11/15 09:54:53;;;;;;;8.00;2.50;;;;;;;-148.88;81.02;75111.03;5001034;28;20022;-80
2022/11/15 09:57:38;;;;;;;4.30;2.55;;;;;;;-148.88;82.54;75092.78;4999341;28;20080;-80
2022/11/15 10:00:18;;;;;;;5.43;2.47;;;;;;;-148.88;82.16;75090.72;4999541;28;20030;-79
2022/11/15 10:03:03;;;;;;;4.32;2.40;;;;;;;-148.88;81.69;75094.81;5000256;28;20519;-78
2022/11/15 10:05:39;;;;;;;4.55;2.67;;;;;;;-148.88;81.63;75090.72;4997705;28;20034;-78
2022/11/15 10:08:35;;;;;;;4.30;2.42;;;;;;;-148.88;81.48;75090.72;4998412;28;20033;-79
2022/11/15 10:11:10;;;;;;;2.90;2.00;;;;;;;-148.88;81.35;75086.69;4997852;28;20444;-78
2022/11/15 10:13:41;;;;;;;4.95;2.60;;;;;;;-148.88;80.67;75074.50;4999204;28;20041;-79
2022/11/15 10:17:03;;;;;;;7.05;2.22;;;;;;;-148.88;78.10;75084.66;4999948;28;20060;-80
2022/11/15 10:19:47;;;;;;;3.05;2.10;;;;;;;-148.88;78.97;75090.72;4977632;28;20031;-79
2022/11/15 10:22:28;;;;;;;4.75;2.10;;;;;;;-148.88;78.13;75070.44;4999608;28;20034;-79
2022/11/15 10:25:03;;;;;;;2.60;1.55;;;;;;;-148.88;76.99;75062.31;5004815;28;20033;-78
2022/11/15 10:27:29;;;;;;;3.38;1.90;;;;;;;-148.88;77.76;75054.19;5013246;28;20386;-79
2022/11/15 10:29:54;;;;;;;3.25;1.60;;;;;;;-148.88;77.42;75044.03;5008983;28;20030;-79
2022/11/15 10:32:21;;;;;;;3.53;1.60;;;;;;;-148.88;76.81;75037.94;5003583;28;20037;-79
2022/11/15 10:34:48;;;;;;;2.50;1.80;;;;;;;-148.88;75.26;75037.94;5002367;28;20030;-79
2022/11/15 10:37:14;;;;;;;4.25;1.80;;;;;;;-148.88;75.16;75021.69;5001604;28;20026;-79
2022/11/15 10:39:40;;;;;;;4.50;1.60;;;;;;;-148.88;74.72;75011.53;5072175;23;20081;-79
2022/11/15 10:42:29;;;;;;;2.30;1.50;;;;;;;-148.88;73.64;75003.41;5047278;28;20105;-80
2022/11/15 10:44:54;;;;;;;2.38;1.58;;;;;;;-148.88;73.54;74999.34;5029283;28;20453;-78
2022/11/15 10:47:40;;;;;;;2.80;1.63;;;;;;;-148.88;74.17;74993.25;5028763;28;20056;-80
2022/11/15 10:50:25;;;;;;;2.42;1.35;;;;;;;-148.88;70.41;74972.94;5028229;28;20034;-79
2022/11/15 10:52:52;;;;;;;3.45;1.60;;;;;;;-148.88;70.80;74960.75;5028163;28;20022;-79
2022/11/15 10:55:31;;;;;;;3.13;1.50;;;;;;;-148.88;70.89;74928.28;5032364;22;20038;-75
2022/11/15 10:58:23;;;;;;;2.80;1.50;;;;;;;-148.88;69.11;74914.06;5013229;28;20058;-75
2022/11/15 11:00:48;;;;;;;2.80;1.25;;;;;;;-148.88;67.10;74899.84;5006565;28;20437;-75
2022/11/15 11:03:31;;;;;;;2.50;1.10;;;;;;;-148.88;64.66;74899.84;5012984;28;20529;-75
2022/11/15 11:06:14;;;;;;;2.33;1.10;;;;;;;-148.88;65.46;74883.59;5013163;28;20025;-75
2022/11/15 11:08:52;;;;;;;6.18;1.23;;;;;;;-148.88;65.63;74861.25;5012927;28;20072;-75
2022/11/15 11:11:17;;;;;;;2.80;1.08;;;;;;;-148.88;66.38;74842.97;5012901;28;20485;-74
2022/11/15 11:13:43;;;;;;;2.88;1.02;;;;;;;-148.88;63.97;74853.13;5011560;28;20120;-74
2022/11/15 11:16:14;;;;;;;2.10;1.10;;;;;;;-148.88;64.78;74832.81;5011871;28;20033;-74
2022/11/15 11:19:17;;;;;;;2.60;1.17;;;;;;;-148.88;62.41;74855.16;5013110;28;20026;-75
2022/11/15 11:21:49;;;;;;;3.90;0.98;;;;;;;-148.88;62.11;74853.13;5017236;28;20033;-74
2022/11/15 11:24:14;;;;;;;3.08;1.20;;;;;;;-148.88;62.50;74847.03;5019369;28;20488;-75
2022/11/15 11:27:08;;;;;;;2.00;1.10;;;;;;;-148.88;62.57;74851.09;5019352;28;20030;-75
2022/11/15 11:29:56;;;;;;;3.15;1.20;;;;;;;-148.88;62.63;74867.34;5019359;28;20483;-75
2022/11/15 11:32:48;;;;;;;1.95;1.13;;;;;;;-148.88;63.31;74855.16;5019451;28;20030;-74
2022/11/15 11:35:22;;;;;;;1.98;1.17;;;;;;;-148.88;64.12;74859.22;5017939;28;20029;-75
2022/11/15 11:38:03;;;;;;;3.08;1.27;;;;;;;-148.88;62.07;74847.03;5019204;28;20026;-73
2022/11/15 11:40:34;;;;;;;2.70;1.30;;;;;;;-148.88;62.01;74847.03;5019424;28;20564;-74
2022/11/15 11:43:36;;;;;;;1.90;1.30;;;;;;;-148.88;62.47;74838.91;5019191;28;20025;-75
2022/11/15 11:46:34;;;;;;;2.60;1.38;;;;;;;-148.88;63.59;74816.56;5012477;28;20088;-75
2022/11/15 11:49:12;;;;;;;4.38;1.45;;;;;;;-148.88;63.30;74824.69;5017925;28;20120;-75
2022/11/15 11:52:08;;;;;;;2.08;1.30;;;;;;;-148.88;63.33;74808.47;5017794;28;20026;-75